»·PEaware :: N149CD KTOA-KVNY

N149CD :: KTOA-KVNY

FLIGHT INFORMATION

Flight Status: Arrived
Operator: Privately registered:
United States
More flights under this callsign
Pilot: Nathan E. (30132)
Aircraft: CESSNA 172 SKYHAWK
(C172)
More flights by this aircraft type
Origin: KTOA Zamperini
United States
Destination: KVNY Van Nuys
United States
More flights between these airports :: More routes between these airports
Route: +LAX170 LIMBO V64 SMO125 SMO SMO317 CANOG
File this flight plan on PilotEdge
Remarks: TEC route CTSP3
Altitude:
(Current/Filed)
4,000ft
Speed:
(Current/Filed)
110kts
Departed: 11-Sep-20 09:48 AM
Arrived: 11-Sep-20 10:37 AM
Distance/Time
Traveled:
25nm/0:49
Distance/Time
To Go:
Arrived

Flight Plot

Page will automatically refresh every two minutes.

Flight plan parsing failed; only flown route is shown


Map Options




Map Legend


Flown Route
Filed Route
Departure Airport
Arrival Airport
Navaid (VOR, NDB)
Fix

Horizontal Profiles

Position Reports

Time Latitude Longitude Heading Altitude Ground
Speed
11-Sep-20 09:06 33.803347 -118.344052 39 102ft 0kts
11-Sep-20 09:07 33.803347 -118.344051 39 102ft 0kts
11-Sep-20 09:09 33.803347 -118.344051 39 102ft 0kts
11-Sep-20 09:10 33.803347 -118.344051 39 102ft 0kts
11-Sep-20 09:11 33.803347 -118.344051 39 102ft 0kts
11-Sep-20 09:12 33.803347 -118.344051 39 102ft 0kts
11-Sep-20 09:13 33.803347 -118.344051 39 102ft 0kts
11-Sep-20 09:14 33.803347 -118.344051 39 102ft 0kts
11-Sep-20 09:15 33.803347 -118.344051 39 102ft 0kts
11-Sep-20 09:16 33.803347 -118.344051 39 102ft 0kts
11-Sep-20 09:17 33.803347 -118.344051 39 102ft 0kts
11-Sep-20 09:18 33.803347 -118.344051 39 102ft 0kts
11-Sep-20 09:19 33.803347 -118.344051 39 102ft 0kts
11-Sep-20 09:20 33.803347 -118.344051 39 102ft 0kts
11-Sep-20 09:21 33.803347 -118.344051 39 102ft 0kts
11-Sep-20 09:22 33.803347 -118.344051 39 102ft 0kts
11-Sep-20 09:23 33.803347 -118.344051 39 102ft 0kts
11-Sep-20 09:24 33.803347 -118.344051 39 102ft 0kts
11-Sep-20 09:25 33.803347 -118.344051 39 102ft 0kts
11-Sep-20 09:25 33.803347 -118.344051 39 102ft 0kts
11-Sep-20 09:27 33.803347 -118.344051 39 102ft 0kts
11-Sep-20 09:27 33.803347 -118.344051 39 102ft 0kts
11-Sep-20 09:28 33.803347 -118.344051 39 102ft 0kts
11-Sep-20 09:30 33.803347 -118.344051 39 102ft 0kts
11-Sep-20 09:30 33.803347 -118.344051 39 102ft 0kts
11-Sep-20 09:31 33.803347 -118.344051 39 102ft 0kts
11-Sep-20 09:32 33.803347 -118.344051 39 102ft 0kts
11-Sep-20 09:33 33.803347 -118.344051 39 102ft 0kts
11-Sep-20 09:34 33.803347 -118.344051 39 102ft 0kts
11-Sep-20 09:35 33.803347 -118.344051 39 102ft 0kts
11-Sep-20 09:36 33.803347 -118.344051 39 102ft 0kts
11-Sep-20 09:37 33.803347 -118.344051 39 102ft 0kts
11-Sep-20 09:38 33.803347 -118.344051 39 102ft 0kts
11-Sep-20 09:39 33.803347 -118.344051 39 102ft 0kts
11-Sep-20 09:40 33.801911 -118.341600 128 104ft 20kts
11-Sep-20 09:41 33.798210 -118.336014 128 108ft 14kts
11-Sep-20 09:42 33.798871 -118.333162 323 101ft 0kts
11-Sep-20 09:43 33.798870 -118.333161 324 101ft 0kts
11-Sep-20 09:44 33.798870 -118.333161 324 101ft 0kts
11-Sep-20 09:45 33.798870 -118.333161 324 101ft 0kts
11-Sep-20 09:46 33.799081 -118.333287 13 101ft 4kts
11-Sep-20 09:47 33.806710 -118.343502 310 339ft 79kts
11-Sep-20 09:48 33.817648 -118.364769 301 1247ft 76kts
11-Sep-20 09:49 33.828553 -118.386842 301 2113ft 77kts
11-Sep-20 09:50 33.839508 -118.409203 301 2931ft 78kts
11-Sep-20 09:51 33.850084 -118.432095 279 3704ft 80kts
11-Sep-20 09:52 33.828544 -118.443760 184 4003ft 122kts
11-Sep-20 09:53 33.796605 -118.446737 184 3999ft 114kts
11-Sep-20 09:54 33.765863 -118.444537 130 3997ft 113kts
11-Sep-20 09:55 33.781334 -118.427147 337 4000ft 112kts
11-Sep-20 09:56 33.796580 -118.452241 231 3996ft 113kts
11-Sep-20 09:57 33.767808 -118.455314 126 3997ft 113kts
11-Sep-20 09:58 33.772427 -118.419003 72 3999ft 113kts
11-Sep-20 09:59 33.793248 -118.391280 41 3999ft 112kts
11-Sep-20 10:00 33.816458 -118.366128 41 3999ft 112kts
11-Sep-20 10:01 33.839892 -118.340727 41 3999ft 112kts
11-Sep-20 10:02 33.863217 -118.315499 41 3999ft 113kts
11-Sep-20 10:03 33.888700 -118.327376 315 4000ft 113kts
11-Sep-20 10:04 33.911724 -118.353560 318 3998ft 113kts
11-Sep-20 10:05 33.935453 -118.379108 319 3998ft 113kts
11-Sep-20 10:06 33.959986 -118.404670 320 3998ft 113kts
11-Sep-20 10:07 33.984579 -118.430095 319 3998ft 113kts
11-Sep-20 10:08 34.008313 -118.455157 312 4001ft 111kts
11-Sep-20 10:09 34.029240 -118.483137 311 4001ft 111kts
11-Sep-20 10:10 34.050075 -118.510839 311 4001ft 111kts
11-Sep-20 10:11 34.071159 -118.538588 311 4000ft 111kts
11-Sep-20 10:12 34.092445 -118.566334 312 4000ft 111kts
11-Sep-20 10:13 34.120549 -118.582487 351 4148ft 117kts
11-Sep-20 10:14 34.153401 -118.587449 351 4661ft 112kts
11-Sep-20 10:15 34.186192 -118.592436 351 5004ft 116kts
11-Sep-20 10:16 34.218421 -118.597351 351 5007ft 111kts
11-Sep-20 10:17 34.250377 -118.602253 351 5010ft 111kts
11-Sep-20 10:18 34.275262 -118.606157 351 5014ft 111kts
11-Sep-20 10:19 34.306033 -118.611127 351 5020ft 111kts
11-Sep-20 10:20 34.336665 -118.616218 351 5025ft 111kts
11-Sep-20 10:21 34.367510 -118.618068 1 5030ft 111kts
11-Sep-20 10:22 34.398455 -118.616791 1 5036ft 111kts
11-Sep-20 10:23 34.429666 -118.615571 1 5037ft 112kts
11-Sep-20 10:24 34.459094 -118.608965 58 5034ft 112kts
11-Sep-20 10:25 34.464504 -118.571724 82 5043ft 112kts
11-Sep-20 10:26 34.468723 -118.534024 82 5048ft 112kts
11-Sep-20 10:27 34.461657 -118.501992 174 5050ft 113kts
11-Sep-20 10:28 34.431139 -118.510012 181 5045ft 113kts
11-Sep-20 10:29 34.398143 -118.507846 175 4602ft 120kts
11-Sep-20 10:30 34.364943 -118.504937 176 4102ft 120kts
11-Sep-20 10:31 34.332617 -118.501027 176 3803ft 114kts
11-Sep-20 10:32 34.300306 -118.498670 174 3736ft 116kts
11-Sep-20 10:33 34.266755 -118.495667 176 2609ft 116kts
11-Sep-20 10:34 34.238028 -118.492922 177 1443ft 81kts
11-Sep-20 10:35 34.218110 -118.491167 178 914ft 66kts
11-Sep-20 10:36 34.208227 -118.491009 204 806ft 0kts
11-Sep-20 10:37 34.206321 -118.492617 179 806ft 7kts

Navigation Log

Ident Type
Flight plan parsing failed, navigation log unavailable